Time;durP1;ratioP1;P1;durP2;ratioP2;P2;SDS_P1;SDS_P2;PMS_P1;PMS_P2;Temp;Humidity;BMP_temperature;BMP_pressure;BME280_temperature;BME280_humidity;BME280_pressure;Samples;Min_cycle;Max_cycle;Signal;HPM_P1;HPM_P2
2023/01/07 00:01:18;;;;;;;45.75;18.25;;;6.50;99.90;;;;;;5040561;28;20037;-70
2023/01/07 00:03:45;;;;;;;48.75;19.52;;;6.50;99.90;;;;;;5041457;28;20029;-69
2023/01/07 00:06:12;;;;;;;48.28;19.85;;;6.50;99.90;;;;;;5041741;28;20398;-69
2023/01/07 00:08:40;;;;;;;39.75;19.60;;;6.60;99.90;;;;;;5040840;28;20037;-69
2023/01/07 00:11:11;;;;;;;45.22;19.60;;;6.60;99.90;;;;;;5040625;28;20026;-70
2023/01/07 00:13:37;;;;;;;42.28;19.67;;;6.60;99.90;;;;;;5040567;28;20116;-71
2023/01/07 00:16:05;;;;;;;44.83;20.00;;;6.70;99.90;;;;;;5041595;28;20041;-69
2023/01/07 00:18:31;;;;;;;43.00;19.33;;;6.70;99.90;;;;;;5039574;28;20086;-70
2023/01/07 00:20:58;;;;;;;39.97;18.13;;;6.80;99.90;;;;;;5040458;28;20097;-72
2023/01/07 00:23:25;;;;;;;43.15;19.83;;;6.80;99.90;;;;;;5041580;28;20029;-71
2023/01/07 00:25:58;;;;;;;46.72;18.88;;;6.80;99.90;;;;;;5039702;28;20119;-71
2023/01/07 00:28:23;;;;;;;49.95;19.20;;;6.80;99.90;;;;;;5041296;28;20018;-71
2023/01/07 00:30:49;;;;;;;42.90;18.33;;;6.80;99.90;;;;;;5041673;28;20029;-72
2023/01/07 00:33:15;;;;;;;41.38;19.23;;;6.90;99.90;;;;;;5040641;28;20025;-72
2023/01/07 00:35:43;;;;;;;43.53;18.30;;;6.80;99.90;;;;;;5041703;28;20025;-70
2023/01/07 00:38:09;;;;;;;47.58;19.02;;;6.90;99.90;;;;;;5041100;28;20052;-71
2023/01/07 00:40:35;;;;;;;41.15;17.85;;;6.90;99.90;;;;;;5041505;28;20033;-70
2023/01/07 00:43:00;;;;;;;42.80;19.50;;;6.90;99.90;;;;;;5040922;28;20021;-71
2023/01/07 00:45:28;;;;;;;43.53;19.23;;;6.90;99.90;;;;;;5041222;28;20037;-70
2023/01/07 00:47:55;;;;;;;48.35;20.38;;;6.90;99.90;;;;;;5041148;28;20060;-72
2023/01/07 00:50:22;;;;;;;46.45;20.27;;;6.90;99.90;;;;;;5041708;28;20454;-72
2023/01/07 00:52:48;;;;;;;44.47;20.83;;;6.90;99.90;;;;;;5041275;28;20399;-71
2023/01/07 00:55:13;;;;;;;51.40;21.55;;;6.90;99.90;;;;;;5041454;28;20021;-72
2023/01/07 00:57:43;;;;;;;43.60;20.65;;;7.00;99.90;;;;;;5041323;28;20081;-72
2023/01/07 01:00:11;;;;;;;45.47;20.95;;;7.00;99.90;;;;;;5041076;28;20041;-71
2023/01/07 01:02:37;;;;;;;44.10;21.33;;;7.00;99.90;;;;;;5041020;28;20045;-72
2023/01/07 01:05:02;;;;;;;48.88;22.10;;;7.00;99.90;;;;;;5039732;28;20394;-72
2023/01/07 01:07:28;;;;;;;53.40;22.42;;;7.00;99.90;;;;;;5039304;28;20017;-72
2023/01/07 01:09:54;;;;;;;57.10;22.90;;;7.10;99.90;;;;;;5041219;28;20033;-71
2023/01/07 01:12:19;;;;;;;55.65;23.33;;;7.10;99.90;;;;;;5039966;28;20029;-71
2023/01/07 01:14:45;;;;;;;52.60;22.80;;;7.10;99.90;;;;;;5039349;28;20032;-72
2023/01/07 01:17:10;;;;;;;52.17;23.52;;;7.20;99.90;;;;;;5041093;28;20075;-71
2023/01/07 01:19:36;;;;;;;56.80;24.70;;;7.10;99.90;;;;;;5040705;28;20283;-71
2023/01/07 01:22:02;;;;;;;60.17;24.45;;;7.20;99.90;;;;;;5040788;28;20029;-70
2023/01/07 01:24:27;;;;;;;58.92;24.23;;;7.20;99.90;;;;;;5039226;28;20578;-71
2023/01/07 01:26:53;;;;;;;62.53;26.10;;;7.30;99.90;;;;;;5039579;28;20022;-72
2023/01/07 01:29:19;;;;;;;62.90;25.30;;;7.30;99.90;;;;;;5041138;28;20463;-71
2023/01/07 01:31:45;;;;;;;66.93;27.02;;;7.30;99.90;;;;;;5039748;28;20075;-71
2023/01/07 01:34:10;;;;;;;68.38;27.05;;;7.30;99.90;;;;;;5039438;28;20026;-70
2023/01/07 01:36:37;;;;;;;66.57;27.38;;;7.40;99.90;;;;;;5040799;28;20034;-71
2023/01/07 01:39:03;;;;;;;70.38;28.27;;;7.40;99.90;;;;;;5040070;28;20045;-71
2023/01/07 01:41:30;;;;;;;66.32;28.38;;;7.50;99.90;;;;;;5040449;28;20100;-72
2023/01/07 01:43:56;;;;;;;73.45;29.00;;;7.50;99.90;;;;;;5040783;28;20032;-70
2023/01/07 01:46:36;;;;;;;80.15;30.17;;;7.50;99.90;;;;;;5039486;28;20042;-71
2023/01/07 01:49:45;;;;;;;69.32;29.42;;;7.60;99.90;;;;;;5040705;28;20037;-72
2023/01/07 01:52:15;;;;;;;70.95;27.73;;;7.60;99.90;;;;;;4982515;28;20106;-72
2023/01/07 01:54:43;;;;;;;74.75;29.00;;;7.70;99.90;;;;;;4998844;28;20518;-71
2023/01/07 01:57:09;;;;;;;71.50;30.15;;;7.70;99.90;;;;;;5019062;28;20037;-71
2023/01/07 01:59:39;;;;;;;76.60;31.25;;;7.70;99.90;;;;;;5040667;28;20501;-72
2023/01/07 02:02:05;;;;;;;78.82;31.58;;;7.70;99.90;;;;;;5040482;28;20113;-70
2023/01/07 02:04:32;;;;;;;83.35;32.30;;;7.80;99.90;;;;;;5040527;28;20053;-69
2023/01/07 02:07:19;;;;;;;90.30;33.80;;;7.80;99.90;;;;;;5040036;28;20018;-70
2023/01/07 02:10:09;;;;;;;81.88;32.13;;;7.80;99.90;;;;;;5040417;28;20026;-71
2023/01/07 02:12:44;;;;;;;85.97;31.75;;;7.90;99.90;;;;;;5039888;28;20037;-71
2023/01/07 02:15:15;;;;;;;83.13;33.03;;;8.00;99.90;;;;;;5040320;28;20021;-71
2023/01/07 02:17:53;;;;;;;98.03;35.55;;;8.00;99.90;;;;;;5040163;28;20032;-70
2023/01/07 02:20:35;;;;;;;98.25;34.85;;;8.10;99.90;;;;;;5040337;28;20601;-71
2023/01/07 02:23:28;;;;;;;100.13;36.17;;;8.10;99.90;;;;;;5039966;28;20026;-71
2023/01/07 02:26:24;;;;;;;107.97;37.13;;;8.20;99.90;;;;;;5039460;28;20047;-72
2023/01/07 02:29:29;;;;;;;100.53;35.35;;;8.20;99.90;;;;;;5039789;28;20067;-71
2023/01/07 02:32:37;;;;;;;102.70;36.67;;;8.30;99.90;;;;;;5040530;28;20033;-71
2023/01/07 02:35:30;;;;;;;101.47;35.47;;;8.40;99.90;;;;;;5020966;28;20041;-71
2023/01/07 02:37:58;;;;;;;106.60;36.08;;;8.40;99.90;;;;;;5043659;28;20057;-72
2023/01/07 02:40:57;;;;;;;127.47;39.03;;;8.50;99.90;;;;;;5043816;28;20056;-71
2023/01/07 02:43:38;;;;;;;113.78;38.95;;;8.50;99.90;;;;;;5043212;28;20029;-71
2023/01/07 02:46:23;;;;;;;115.47;38.85;;;8.50;99.90;;;;;;5042246;28;20107;-72
2023/01/07 02:48:51;;;;;;;111.15;37.60;;;8.60;99.90;;;;;;5043544;28;20048;-71
2023/01/07 02:51:16;;;;;;;119.75;41.88;;;8.60;99.90;;;;;;5043383;28;20056;-71
2023/01/07 02:53:44;;;;;;;122.32;41.08;;;8.60;99.90;;;;;;5043478;28;20030;-70
2023/01/07 02:56:19;;;;;;;108.50;38.85;;;8.70;99.90;;;;;;5043073;28;20032;-71
2023/01/07 02:58:54;;;;;;;107.60;38.22;;;8.70;99.90;;;;;;5041356;28;20080;-71
2023/01/07 03:01:37;;;;;;;108.07;39.45;;;8.80;99.90;;;;;;5043462;28;20022;-72
2023/01/07 03:04:48;;;;;;;103.47;39.33;;;8.80;99.90;;;;;;5042886;28;20021;-71
2023/01/07 03:07:36;;;;;;;111.18;39.92;;;8.80;99.90;;;;;;5039423;28;20049;-71
2023/01/07 03:10:13;;;;;;;97.63;36.08;;;8.90;99.90;;;;;;5041895;28;20065;-71
2023/01/07 03:12:47;;;;;;;112.70;40.78;;;8.90;99.90;;;;;;5043158;28;20032;-72
2023/01/07 03:15:18;;;;;;;111.93;41.45;;;8.90;99.90;;;;;;5041605;28;20025;-72
2023/01/07 03:18:07;;;;;;;109.15;42.33;;;9.00;99.90;;;;;;5042620;28;20037;-72
2023/01/07 03:20:36;;;;;;;105.72;39.25;;;9.00;99.90;;;;;;5042636;28;20029;-71
2023/01/07 03:23:05;;;;;;;109.45;40.80;;;9.00;99.90;;;;;;5042531;28;20021;-70
2023/01/07 03:25:33;;;;;;;108.05;41.47;;;9.00;99.90;;;;;;5040655;28;20045;-70
2023/01/07 03:27:59;;;;;;;105.63;41.00;;;9.00;99.90;;;;;;5041221;28;20059;-72
2023/01/07 03:30:26;;;;;;;118.10;41.65;;;9.10;99.90;;;;;;5042944;28;20045;-72
2023/01/07 03:33:15;;;;;;;110.63;41.88;;;9.10;99.90;;;;;;5043038;28;20681;-71
2023/01/07 03:35:43;;;;;;;108.63;39.67;;;9.10;99.90;;;;;;5042433;28;20033;-71
2023/01/07 03:38:11;;;;;;;115.88;42.10;;;9.10;99.90;;;;;;5042191;28;20033;-72
2023/01/07 03:40:37;;;;;;;109.95;40.03;;;9.10;99.90;;;;;;5042595;28;20021;-69
2023/01/07 03:43:03;;;;;;;113.60;40.95;;;9.10;99.90;;;;;;5042398;28;20073;-72
2023/01/07 03:45:29;;;;;;;119.53;40.90;;;9.20;99.90;;;;;;5042476;28;20147;-71
2023/01/07 03:47:56;;;;;;;116.25;41.63;;;9.20;99.90;;;;;;5042488;28;20029;-69
2023/01/07 03:50:22;;;;;;;113.95;39.65;;;9.20;99.90;;;;;;5042568;28;20118;-71
2023/01/07 03:52:49;;;;;;;97.47;36.78;;;9.20;99.90;;;;;;5042319;28;20390;-71
2023/01/07 03:55:15;;;;;;;86.40;31.08;;;9.20;99.90;;;;;;5040534;28;20045;-70
2023/01/07 03:57:41;;;;;;;101.40;39.05;;;9.30;99.90;;;;;;5040679;28;20051;-71
2023/01/07 04:00:09;;;;;;;104.90;39.92;;;9.30;99.90;;;;;;5041731;28;20030;-71
2023/01/07 04:02:35;;;;;;;100.80;37.53;;;9.30;99.90;;;;;;5040143;28;20029;-72
2023/01/07 04:05:01;;;;;;;107.65;38.88;;;9.30;99.90;;;;;;5042051;28;20033;-70
2023/01/07 04:07:27;;;;;;;92.80;35.13;;;9.30;99.90;;;;;;5040646;28;20028;-70
2023/01/07 04:09:52;;;;;;;97.75;37.67;;;9.30;99.90;;;;;;5042471;28;20029;-70
2023/01/07 04:12:18;;;;;;;112.25;40.22;;;9.30;99.90;;;;;;5042178;28;20025;-72
2023/01/07 04:14:44;;;;;;;101.93;39.17;;;9.40;99.90;;;;;;5042150;28;20498;-71
2023/01/07 04:17:09;;;;;;;97.28;39.25;;;9.40;99.90;;;;;;5041852;28;20470;-71
2023/01/07 04:19:37;;;;;;;100.00;39.53;;;9.40;99.90;;;;;;5041753;28;20045;-71
2023/01/07 04:22:04;;;;;;;86.03;34.15;;;9.40;99.90;;;;;;5041994;28;20022;-72
2023/01/07 04:24:30;;;;;;;93.20;36.63;;;9.40;99.90;;;;;;5041600;28;20076;-72
2023/01/07 04:26:55;;;;;;;89.47;36.25;;;9.40;99.90;;;;;;5040293;28;20026;-70
2023/01/07 04:29:21;;;;;;;81.15;34.35;;;9.50;99.90;;;;;;5041768;28;20025;-70
2023/01/07 04:31:47;;;;;;;90.78;37.03;;;9.50;99.90;;;;;;5041635;28;20112;-70
2023/01/07 04:34:13;;;;;;;89.82;36.00;;;9.50;99.90;;;;;;5041191;28;20032;-70
2023/01/07 04:36:39;;;;;;;83.18;34.67;;;9.50;99.90;;;;;;5041622;28;20373;-70
2023/01/07 04:39:04;;;;;;;92.40;37.63;;;9.50;99.90;;;;;;5041142;28;20085;-70
2023/01/07 04:41:30;;;;;;;86.25;34.97;;;9.60;99.90;;;;;;5041396;28;20093;-70
2023/01/07 04:43:56;;;;;;;102.18;33.53;;;9.60;99.90;;;;;;5041527;28;20408;-71
2023/01/07 04:46:21;;;;;;;77.82;31.05;;;9.60;99.90;;;;;;5040001;28;20053;-71
2023/01/07 04:48:47;;;;;;;83.75;34.85;;;9.60;99.90;;;;;;5041804;28;20049;-70
2023/01/07 04:51:12;;;;;;;80.25;32.90;;;9.60;99.90;;;;;;5039503;28;20021;-71
2023/01/07 04:53:38;;;;;;;78.90;34.13;;;9.60;99.90;;;;;;5039748;28;20029;-70
2023/01/07 04:56:05;;;;;;;81.03;34.60;;;9.60;99.90;;;;;;5040726;28;20040;-72
2023/01/07 04:58:31;;;;;;;85.45;35.67;;;9.60;99.90;;;;;;5039798;28;20104;-70
2023/01/07 05:00:58;;;;;;;90.47;37.13;;;9.60;99.90;;;;;;5041000;28;20064;-72
2023/01/07 05:03:24;;;;;;;83.38;32.75;;;9.70;99.90;;;;;;5041107;28;20040;-72
2023/01/07 05:05:50;;;;;;;80.22;32.53;;;9.70;99.90;;;;;;5040706;28;20036;-70
2023/01/07 05:08:15;;;;;;;73.93;31.58;;;9.70;99.90;;;;;;5041171;28;20670;-71
2023/01/07 05:10:41;;;;;;;95.03;36.78;;;9.70;99.90;;;;;;5040937;28;20558;-70
2023/01/07 05:13:06;;;;;;;87.85;36.90;;;9.70;99.90;;;;;;5040886;28;20033;-71
2023/01/07 05:15:32;;;;;;;100.85;37.15;;;9.70;99.90;;;;;;5041070;28;20091;-70
2023/01/07 05:17:58;;;;;;;88.25;36.38;;;9.70;99.90;;;;;;5040778;28;20022;-70
2023/01/07 05:20:23;;;;;;;80.13;35.38;;;9.70;99.90;;;;;;5039939;28;20030;-70
2023/01/07 05:22:49;;;;;;;86.32;36.58;;;9.70;99.90;;;;;;5041007;28;20047;-71
2023/01/07 05:25:17;;;;;;;82.15;36.28;;;9.70;99.90;;;;;;5040864;28;20059;-73
2023/01/07 05:27:42;;;;;;;83.05;36.85;;;9.70;99.90;;;;;;5038878;28;20025;-70
2023/01/07 05:30:08;;;;;;;78.55;33.53;;;9.70;99.90;;;;;;5040787;28;21267;-72
2023/01/07 05:32:34;;;;;;;83.40;36.60;;;9.70;99.90;;;;;;5038950;28;20374;-71
2023/01/07 05:35:00;;;;;;;79.60;36.97;;;9.80;99.90;;;;;;5040814;28;20030;-70
2023/01/07 05:37:26;;;;;;;88.70;36.95;;;9.80;99.90;;;;;;5039307;28;20030;-71
2023/01/07 05:39:52;;;;;;;90.40;37.53;;;9.80;99.90;;;;;;5040845;28;20035;-70
2023/01/07 05:42:17;;;;;;;83.05;36.58;;;9.80;99.90;;;;;;5040682;28;20021;-71
2023/01/07 05:44:43;;;;;;;86.22;37.70;;;9.80;99.90;;;;;;5040641;28;20547;-70
2023/01/07 05:47:08;;;;;;;78.88;36.58;;;9.80;99.90;;;;;;5039302;28;20033;-70
2023/01/07 05:49:34;;;;;;;83.50;36.33;;;9.80;99.90;;;;;;5040441;28;20025;-70
2023/01/07 05:51:59;;;;;;;74.85;34.78;;;9.80;99.90;;;;;;5040692;28;20022;-71
2023/01/07 05:54:26;;;;;;;78.15;36.20;;;9.80;99.90;;;;;;5040827;28;20041;-71
2023/01/07 05:56:51;;;;;;;81.43;38.83;;;9.80;99.90;;;;;;5040128;28;20053;-71
2023/01/07 05:59:17;;;;;;;77.68;35.65;;;9.80;99.90;;;;;;5040761;28;20040;-70
2023/01/07 06:01:42;;;;;;;79.10;37.40;;;9.80;99.90;;;;;;5040576;28;20026;-71
2023/01/07 06:04:08;;;;;;;83.03;38.33;;;9.80;99.90;;;;;;5040302;28;20025;-71
2023/01/07 06:06:33;;;;;;;82.70;37.30;;;9.80;99.90;;;;;;5040549;28;20466;-69
2023/01/07 06:08:59;;;;;;;77.28;37.40;;;9.80;99.90;;;;;;5042611;28;20014;-69
2023/01/07 06:11:24;;;;;;;74.72;32.72;;;9.80;99.90;;;;;;5044366;28;20017;-70
2023/01/07 06:13:50;;;;;;;77.18;35.10;;;9.80;99.90;;;;;;5044428;28;20379;-70
2023/01/07 06:16:16;;;;;;;69.43;32.40;;;9.80;99.90;;;;;;5043835;28;20033;-71
2023/01/07 06:18:41;;;;;;;70.82;36.28;;;9.80;99.90;;;;;;5044040;28;20489;-70
2023/01/07 06:21:07;;;;;;;75.45;36.70;;;9.80;99.90;;;;;;5043029;28;20041;-70
2023/01/07 06:23:33;;;;;;;80.57;38.03;;;9.80;99.90;;;;;;5042605;28;20080;-71
2023/01/07 06:25:58;;;;;;;80.78;34.67;;;9.80;99.90;;;;;;5042778;28;20065;-70
2023/01/07 06:28:24;;;;;;;76.47;37.97;;;9.80;99.90;;;;;;5042713;28;20029;-70
2023/01/07 06:30:50;;;;;;;77.47;37.47;;;9.80;99.90;;;;;;5044030;28;20041;-71
2023/01/07 06:33:16;;;;;;;73.35;35.90;;;9.80;99.90;;;;;;5042506;28;20049;-70
2023/01/07 06:35:44;;;;;;;75.75;36.38;;;9.80;99.90;;;;;;5039220;28;20034;-70
2023/01/07 06:38:09;;;;;;;75.15;36.53;;;9.90;99.90;;;;;;5041066;28;20047;-71
2023/01/07 06:40:36;;;;;;;78.88;36.47;;;9.90;99.90;;;;;;5042190;28;20401;-71
2023/01/07 06:43:02;;;;;;;69.25;35.75;;;9.90;99.90;;;;;;5043331;28;20029;-69
2023/01/07 06:45:27;;;;;;;76.38;34.63;;;9.90;99.90;;;;;;5041185;28;20043;-71
2023/01/07 06:47:56;;;;;;;74.32;36.38;;;9.80;99.90;;;;;;5043543;28;20029;-71
2023/01/07 06:50:21;;;;;;;77.68;35.83;;;9.90;99.90;;;;;;5042030;28;20155;-71
2023/01/07 06:52:47;;;;;;;63.78;33.15;;;9.90;99.90;;;;;;5043638;28;20081;-72
2023/01/07 06:55:13;;;;;;;70.85;35.60;;;9.90;99.90;;;;;;5043370;28;20108;-70
2023/01/07 06:57:39;;;;;;;70.55;34.88;;;9.90;99.90;;;;;;5038450;28;20033;-71
2023/01/07 07:00:05;;;;;;;66.43;32.88;;;9.90;99.90;;;;;;5039690;28;20365;-71
2023/01/07 07:02:30;;;;;;;63.95;33.80;;;9.90;99.90;;;;;;5041745;28;20534;-72
2023/01/07 07:04:56;;;;;;;68.28;34.60;;;9.90;99.90;;;;;;5038512;28;20068;-71
2023/01/07 07:07:22;;;;;;;70.97;35.97;;;9.90;99.90;;;;;;5037184;28;20033;-72
2023/01/07 07:09:49;;;;;;;65.38;33.20;;;10.00;99.90;;;;;;5042554;28;20037;-75
2023/01/07 07:12:27;;;;;;;67.68;33.88;;;9.90;99.90;;;;;;5038423;28;20029;-71
2023/01/07 07:14:53;;;;;;;65.47;32.83;;;9.90;99.90;;;;;;5038314;28;20055;-72
2023/01/07 07:17:19;;;;;;;62.03;31.80;;;9.90;99.90;;;;;;5039663;28;20108;-71
2023/01/07 07:19:44;;;;;;;64.88;31.98;;;9.90;99.90;;;;;;5041383;28;20532;-73
2023/01/07 07:22:10;;;;;;;64.57;32.83;;;9.90;99.90;;;;;;5042950;28;20037;-71
2023/01/07 07:24:36;;;;;;;63.28;32.35;;;9.90;99.90;;;;;;5041228;28;20060;-71
2023/01/07 07:27:02;;;;;;;58.65;30.13;;;9.90;99.90;;;;;;5038697;28;20026;-70
2023/01/07 07:29:28;;;;;;;61.78;30.20;;;9.90;99.90;;;;;;5041646;28;20036;-72
2023/01/07 07:31:53;;;;;;;58.95;30.50;;;9.90;99.90;;;;;;5038339;28;20034;-72
2023/01/07 07:34:19;;;;;;;66.97;31.45;;;9.90;99.90;;;;;;5041319;28;20017;-72
2023/01/07 07:36:44;;;;;;;65.50;32.15;;;9.90;99.90;;;;;;5039533;28;20044;-71
2023/01/07 07:39:10;;;;;;;57.10;30.02;;;9.90;99.90;;;;;;5042460;28;20033;-71
2023/01/07 07:41:36;;;;;;;58.13;28.98;;;9.90;99.90;;;;;;5039247;28;20021;-71
2023/01/07 07:44:01;;;;;;;50.45;26.98;;;9.80;99.90;;;;;;5039351;28;20045;-71
2023/01/07 07:46:27;;;;;;;58.50;29.60;;;9.80;99.90;;;;;;5039198;28;20038;-72
2023/01/07 07:48:53;;;;;;;60.33;27.35;;;9.90;99.90;;;;;;5039234;28;20048;-70
2023/01/07 07:51:18;;;;;;;50.72;27.52;;;9.80;99.90;;;;;;5042648;28;20040;-73
2023/01/07 07:53:44;;;;;;;64.55;28.98;;;9.80;99.90;;;;;;5041400;28;20029;-72
2023/01/07 07:56:09;;;;;;;55.60;27.45;;;9.80;99.90;;;;;;5042498;28;20030;-71
2023/01/07 07:58:35;;;;;;;49.67;26.02;;;9.80;99.90;;;;;;5042353;28;20030;-71
2023/01/07 08:01:01;;;;;;;52.75;27.52;;;9.80;99.90;;;;;;5040835;28;20116;-71
2023/01/07 08:03:26;;;;;;;66.00;28.05;;;9.70;99.90;;;;;;5040899;28;20032;-71
2023/01/07 08:05:52;;;;;;;57.08;28.42;;;9.70;99.90;;;;;;5041461;28;20463;-73
2023/01/07 08:08:18;;;;;;;57.72;26.92;;;9.70;99.90;;;;;;5039981;28;20029;-72
2023/01/07 08:10:43;;;;;;;55.70;26.70;;;9.70;99.90;;;;;;5040321;28;20037;-73
2023/01/07 08:13:09;;;;;;;54.38;26.75;;;9.70;99.90;;;;;;5041280;28;20026;-71
2023/01/07 08:15:35;;;;;;;54.97;27.15;;;9.70;99.90;;;;;;5042105;28;20044;-71
2023/01/07 08:18:04;;;;;;;55.80;26.58;;;9.70;99.90;;;;;;5042038;28;20021;-71
2023/01/07 08:20:33;;;;;;;60.05;26.88;;;9.70;99.90;;;;;;5037956;28;20056;-72
2023/01/07 08:22:59;;;;;;;48.25;24.77;;;9.70;99.90;;;;;;5041335;28;20031;-70
2023/01/07 08:25:29;;;;;;;49.13;24.60;;;9.70;99.90;;;;;;5040845;28;20041;-72
2023/01/07 08:27:55;;;;;;;48.70;24.10;;;9.70;99.90;;;;;;5041519;28;20036;-71
2023/01/07 08:30:22;;;;;;;54.38;24.85;;;9.80;99.90;;;;;;5040428;28;20032;-72
2023/01/07 08:32:47;;;;;;;44.00;21.45;;;9.80;99.90;;;;;;5039636;28;20022;-71
2023/01/07 08:35:14;;;;;;;46.92;23.83;;;9.80;99.90;;;;;;5041586;28;20029;-71
2023/01/07 08:37:40;;;;;;;50.80;24.20;;;9.80;99.90;;;;;;5041444;28;20055;-70
2023/01/07 08:40:06;;;;;;;46.45;22.20;;;9.80;99.90;;;;;;5039472;28;20026;-70
2023/01/07 08:42:32;;;;;;;45.67;22.90;;;9.80;99.90;;;;;;5041441;28;20025;-71
2023/01/07 08:44:57;;;;;;;47.85;24.15;;;9.90;99.90;;;;;;5039881;28;20067;-71
2023/01/07 08:47:26;;;;;;;46.72;22.58;;;9.90;99.90;;;;;;5038688;28;20045;-72
2023/01/07 08:49:55;;;;;;;47.20;22.10;;;9.90;99.90;;;;;;5040437;28;20069;-71
2023/01/07 08:52:22;;;;;;;40.83;20.80;;;9.90;99.90;;;;;;5039122;28;20080;-72
2023/01/07 08:54:48;;;;;;;43.08;20.80;;;9.90;99.90;;;;;;5040613;28;20060;-71
2023/01/07 08:57:15;;;;;;;44.65;20.48;;;9.90;99.90;;;;;;5039493;28;20040;-71
2023/01/07 08:59:42;;;;;;;41.42;21.02;;;10.00;99.90;;;;;;5041060;28;20018;-72
2023/01/07 09:02:18;;;;;;;38.22;19.20;;;10.00;99.90;;;;;;5040703;28;21529;-73
2023/01/07 09:04:44;;;;;;;42.20;19.52;;;10.00;99.90;;;;;;5038520;28;20022;-71
2023/01/07 09:07:10;;;;;;;35.63;17.65;;;10.00;99.90;;;;;;5038826;28;20433;-70
2023/01/07 09:09:36;;;;;;;41.45;17.70;;;10.10;99.90;;;;;;5039227;28;20026;-71
2023/01/07 09:12:03;;;;;;;32.72;16.92;;;10.10;99.90;;;;;;5039877;28;20073;-71
2023/01/07 09:14:29;;;;;;;32.75;15.82;;;10.10;99.90;;;;;;5040347;28;20065;-71
2023/01/07 09:16:55;;;;;;;32.92;16.55;;;10.10;99.90;;;;;;5033997;28;20124;-70
2023/01/07 09:19:20;;;;;;;29.60;16.15;;;10.20;99.90;;;;;;5039575;28;20441;-71
2023/01/07 09:21:46;;;;;;;29.08;15.65;;;10.20;99.90;;;;;;5036954;28;20025;-72
2023/01/07 09:24:12;;;;;;;25.27;14.38;;;10.40;99.90;;;;;;5037657;28;20059;-70
2023/01/07 09:26:37;;;;;;;23.77;12.02;;;10.60;99.90;;;;;;5037264;28;20113;-70
2023/01/07 09:29:03;;;;;;;25.13;12.07;;;10.80;99.90;;;;;;5039418;28;20032;-72
2023/01/07 09:31:28;;;;;;;19.10;10.65;;;11.00;99.90;;;;;;5038899;28;20108;-74
2023/01/07 09:33:54;;;;;;;19.85;9.77;;;11.20;99.90;;;;;;5040621;28;20026;-70
2023/01/07 09:36:20;;;;;;;17.67;9.75;;;11.40;99.90;;;;;;5039838;28;20025;-72
2023/01/07 09:38:45;;;;;;;16.00;9.10;;;11.40;99.90;;;;;;5037981;28;20041;-73
2023/01/07 09:41:48;;;;;;;15.40;8.27;;;11.40;99.90;;;;;;5040367;28;20072;-71
2023/01/07 09:44:52;;;;;;;14.57;8.40;;;11.30;99.90;;;;;;5043511;28;20035;-73
2023/01/07 09:47:21;;;;;;;13.32;7.15;;;11.20;99.90;;;;;;5043731;28;20034;-72
2023/01/07 09:49:51;;;;;;;11.68;6.72;;;11.10;99.90;;;;;;5043432;28;20109;-71
2023/01/07 09:52:34;;;;;;;13.80;7.25;;;11.10;99.90;;;;;;5044532;28;20071;-71
2023/01/07 09:55:15;;;;;;;13.77;7.30;;;11.10;99.90;;;;;;5042377;28;20025;-71
2023/01/07 09:57:40;;;;;;;11.90;6.90;;;11.10;99.90;;;;;;5041093;28;20033;-71
2023/01/07 10:00:17;;;;;;;13.52;6.53;;;11.10;99.90;;;;;;5043089;28;20029;-72
2023/01/07 10:03:10;;;;;;;11.65;6.32;;;11.10;99.90;;;;;;5042371;28;20025;-72
2023/01/07 10:06:18;;;;;;;11.50;6.30;;;11.30;99.90;;;;;;5041970;28;20067;-72
2023/01/07 10:09:07;;;;;;;11.23;5.90;;;11.90;99.90;;;;;;5042855;28;20049;-74
2023/01/07 10:12:02;;;;;;;8.25;5.22;;;11.90;99.90;;;;;;5043839;28;20025;-71
2023/01/07 10:14:39;;;;;;;8.70;5.20;;;12.00;99.90;;;;;;5042452;28;20037;-71
2023/01/07 10:17:26;;;;;;;8.27;5.00;;;12.00;99.90;;;;;;5042834;28;20049;-73
2023/01/07 10:20:00;;;;;;;8.57;4.68;;;11.80;99.90;;;;;;5043982;28;20021;-72
2023/01/07 10:22:37;;;;;;;8.35;4.50;;;11.60;99.90;;;;;;5043398;28;20045;-73
2023/01/07 10:25:12;;;;;;;10.63;4.90;;;11.40;99.90;;;;;;5043280;28;20046;-71
2023/01/07 10:27:41;;;;;;;8.18;4.93;;;11.20;99.90;;;;;;5044103;28;20068;-71
2023/01/07 10:30:17;;;;;;;7.97;4.90;;;11.10;99.90;;;;;;5043711;28;20033;-71
2023/01/07 10:32:47;;;;;;;9.20;4.30;;;11.00;99.90;;;;;;5041697;28;20029;-71
2023/01/07 10:35:18;;;;;;;7.18;4.70;;;10.90;99.90;;;;;;5042388;28;20029;-70
2023/01/07 10:37:43;;;;;;;7.30;4.05;;;10.80;99.90;;;;;;5041630;28;20037;-69
2023/01/07 10:40:27;;;;;;;9.00;4.72;;;10.80;99.90;;;;;;5043089;28;20482;-71
2023/01/07 10:43:16;;;;;;;8.75;4.55;;;10.70;99.90;;;;;;5042882;28;20048;-72
2023/01/07 10:46:14;;;;;;;6.70;4.18;;;10.70;99.90;;;;;;5031735;28;20049;-72
2023/01/07 10:48:45;;;;;;;10.23;4.68;;;10.60;99.90;;;;;;5041303;28;20033;-72
2023/01/07 10:51:30;;;;;;;7.55;4.47;;;10.60;99.90;;;;;;5034436;28;20033;-73
2023/01/07 10:54:13;;;;;;;15.57;6.75;;;10.60;99.90;;;;;;5037945;28;20033;-72
2023/01/07 10:56:43;;;;;;;12.25;5.57;;;10.60;99.90;;;;;;5039974;28;20033;-69
2023/01/07 10:59:20;;;;;;;15.00;5.15;;;10.60;99.90;;;;;;5040783;28;20033;-71
2023/01/07 11:01:55;;;;;;;5.72;3.65;;;10.70;99.90;;;;;;5043304;28;20030;-72
2023/01/07 11:04:21;;;;;;;4.82;3.30;;;10.70;99.90;;;;;;5041921;28;20033;-73
2023/01/07 11:06:49;;;;;;;8.05;3.75;;;10.80;99.90;;;;;;5042848;28;20124;-73
2023/01/07 11:09:45;;;;;;;6.80;3.85;;;10.80;99.90;;;;;;5042771;28;20064;-73
2023/01/07 11:12:24;;;;;;;7.60;3.95;;;10.80;99.90;;;;;;5041192;28;20037;-72
2023/01/07 11:14:52;;;;;;;8.02;4.15;;;10.80;99.90;;;;;;5041803;28;20029;-71
2023/01/07 11:17:52;;;;;;;6.70;3.97;;;10.80;99.90;;;;;;5041803;28;20022;-70
2023/01/07 11:20:42;;;;;;;7.82;3.65;;;10.90;99.90;;;;;;5041910;28;20022;-71
2023/01/07 11:23:29;;;;;;;5.65;3.80;;;10.90;99.90;;;;;;5043229;28;20026;-70
2023/01/07 11:26:22;;;;;;;6.85;3.85;;;10.90;99.90;;;;;;5028572;28;20041;-70
2023/01/07 11:28:52;;;;;;;8.13;4.63;;;10.90;99.90;;;;;;5031159;28;20030;-71
2023/01/07 11:31:18;;;;;;;5.10;3.47;;;10.90;99.90;;;;;;5035678;28;20052;-70
2023/01/07 11:33:51;;;;;;;6.40;3.60;;;10.90;99.90;;;;;;5041811;28;20026;-72
2023/01/07 11:36:17;;;;;;;7.28;3.75;;;10.90;99.90;;;;;;5041224;28;20116;-70
2023/01/07 11:38:44;;;;;;;5.93;3.40;;;10.90;99.90;;;;;;5039065;28;20048;-72
2023/01/07 11:41:25;;;;;;;9.57;3.70;;;10.80;99.90;;;;;;5041036;28;20056;-71
2023/01/07 11:43:53;;;;;;;6.82;3.15;;;10.80;99.90;;;;;;5042105;28;20026;-71
2023/01/07 11:46:21;;;;;;;6.43;3.60;;;10.80;99.90;;;;;;5042062;28;20034;-72
2023/01/07 11:48:59;;;;;;;5.85;3.22;;;10.90;99.90;;;;;;5040639;28;20078;-71
2023/01/07 11:51:25;;;;;;;4.90;3.00;;;10.80;99.90;;;;;;5042293;28;20037;-71
2023/01/07 11:53:59;;;;;;;5.38;3.08;;;10.70;99.90;;;;;;5042104;28;20036;-71
2023/01/07 11:56:29;;;;;;;5.67;3.30;;;10.80;99.90;;;;;;5042134;28;20389;-74
2023/01/07 11:59:10;;;;;;;6.32;2.67;;;10.80;99.90;;;;;;5041882;28;20030;-73
2023/01/07 12:01:42;;;;;;;6.63;3.53;;;10.80;99.90;;;;;;5041670;28;20044;-73
2023/01/07 12:04:26;;;;;;;8.32;3.00;;;10.80;99.90;;;;;;5041146;28;20030;-71
2023/01/07 12:06:56;;;;;;;7.07;2.70;;;10.80;99.90;;;;;;5041296;28;20030;-73
2023/01/07 12:09:33;;;;;;;5.93;2.55;;;10.80;99.90;;;;;;5040620;28;20032;-71
2023/01/07 12:12:30;;;;;;;6.75;3.20;;;10.80;99.90;;;;;;5040781;28;20025;-71
2023/01/07 12:15:00;;;;;;;5.10;2.90;;;10.80;99.90;;;;;;5041749;28;20036;-72
2023/01/07 12:17:28;;;;;;;4.32;2.80;;;10.70;99.90;;;;;;5040416;28;20021;-72
2023/01/07 12:19:54;;;;;;;6.18;3.40;;;10.70;99.90;;;;;;5040449;28;20398;-72
2023/01/07 12:22:36;;;;;;;6.60;3.05;;;10.70;99.90;;;;;;5037515;28;20026;-73
2023/01/07 12:25:23;;;;;;;4.38;2.75;;;10.70;99.90;;;;;;5035281;28;20145;-71
2023/01/07 12:28:08;;;;;;;6.25;3.60;;;10.70;99.90;;;;;;5037739;28;20038;-73
2023/01/07 12:31:13;;;;;;;4.15;2.90;;;10.70;99.90;;;;;;5056348;28;20497;-67
2023/01/07 12:34:09;;;;;;;4.63;3.15;;;10.70;99.90;;;;;;5039550;28;20813;-71
2023/01/07 12:36:54;;;;;;;7.65;4.00;;;10.70;99.90;;;;;;5040742;28;20025;-71
2023/01/07 12:39:23;;;;;;;5.72;3.10;;;10.70;99.90;;;;;;5040616;28;20108;-71
2023/01/07 12:42:01;;;;;;;6.82;3.20;;;10.70;99.90;;;;;;5040807;28;20053;-72
2023/01/07 12:44:26;;;;;;;5.78;2.60;;;10.70;99.90;;;;;;5039994;28;20030;-70
2023/01/07 12:47:49;;;;;;;5.32;2.83;;;10.80;99.90;;;;;;5040339;28;20059;-71
2023/01/07 12:50:39;;;;;;;8.63;3.15;;;10.80;99.90;;;;;;5032179;28;20045;-72
2023/01/07 12:53:15;;;;;;;4.03;2.20;;;10.80;99.90;;;;;;5037885;28;20041;-72
2023/01/07 12:55:51;;;;;;;6.50;3.00;;;10.80;99.90;;;;;;5040075;28;20025;-70